Time;durP1;ratioP1;P1;durP2;ratioP2;P2;SDS_P1;SDS_P2;PMS_P1;PMS_P2;Temp;Humidity;BMP_temperature;BMP_pressure;BME280_temperature;BME280_humidity;BME280_pressure;Samples;Min_cycle;Max_cycle;Signal;HPM_P1;HPM_P2
2022/03/14 00:01:29;;;;;;;1.60;0.98;;;19.20;61.20;;;;;;5092495;28;20065;-73
2022/03/14 00:03:58;;;;;;;1.20;0.90;;;19.10;61.20;;;;;;5113647;28;20016;-74
2022/03/14 00:06:28;;;;;;;1.77;0.90;;;19.10;61.20;;;;;;5114138;28;20112;-74
2022/03/14 00:09:06;;;;;;;2.47;1.15;;;19.10;61.20;;;;;;5108875;28;20020;-74
2022/03/14 00:11:35;;;;;;;2.10;0.90;;;19.10;61.20;;;;;;5087083;28;20200;-73
2022/03/14 00:14:04;;;;;;;1.50;0.88;;;19.10;61.30;;;;;;5087077;28;20517;-73
2022/03/14 00:16:34;;;;;;;1.85;1.10;;;19.00;61.10;;;;;;5087262;28;20032;-73
2022/03/14 00:19:00;;;;;;;1.40;0.98;;;19.00;61.10;;;;;;5086957;28;20035;-74
2022/03/14 00:21:26;;;;;;;1.58;0.70;;;19.00;61.20;;;;;;5085650;28;20024;-74
2022/03/14 00:23:54;;;;;;;1.30;0.88;;;19.00;61.20;;;;;;5087003;28;20480;-73
2022/03/14 00:26:22;;;;;;;1.85;0.98;;;18.90;61.20;;;;;;5086899;28;20040;-74
2022/03/14 00:28:48;;;;;;;1.70;1.15;;;18.90;61.20;;;;;;5086461;28;20181;-74
2022/03/14 00:31:15;;;;;;;1.35;0.90;;;18.90;61.30;;;;;;5086465;28;20031;-73
2022/03/14 00:33:41;;;;;;;1.58;1.00;;;18.90;61.30;;;;;;5087458;28;20047;-73
2022/03/14 00:36:08;;;;;;;1.50;0.90;;;18.80;61.20;;;;;;5087576;28;20028;-73
2022/03/14 00:38:38;;;;;;;2.08;1.10;;;18.80;61.20;;;;;;5086575;28;20166;-73
2022/03/14 00:41:05;;;;;;;1.25;0.82;;;18.80;61.20;;;;;;5086689;28;20036;-73
2022/03/14 00:43:31;;;;;;;1.13;0.80;;;18.80;61.30;;;;;;5086875;28;20020;-74
2022/03/14 00:45:57;;;;;;;1.52;0.95;;;18.70;61.20;;;;;;5086315;28;20620;-73
2022/03/14 00:48:23;;;;;;;1.23;0.90;;;18.70;61.30;;;;;;5084877;28;20111;-73
2022/03/14 00:50:49;;;;;;;2.30;1.20;;;18.70;61.20;;;;;;5088796;28;20024;-73
2022/03/14 00:53:15;;;;;;;1.30;0.80;;;18.70;61.30;;;;;;5086694;28;20113;-73
2022/03/14 00:55:41;;;;;;;2.63;0.70;;;18.60;61.30;;;;;;5087975;28;20028;-75
2022/03/14 00:58:07;;;;;;;2.40;0.82;;;18.60;61.30;;;;;;5086532;28;20020;-74
2022/03/14 01:00:33;;;;;;;2.05;0.85;;;18.60;61.30;;;;;;5086081;28;20032;-73
2022/03/14 01:02:59;;;;;;;2.00;0.88;;;18.60;61.40;;;;;;5084465;28;20024;-74
2022/03/14 01:05:28;;;;;;;2.75;0.90;;;18.60;61.40;;;;;;5086118;28;20028;-73
2022/03/14 01:07:54;;;;;;;3.38;1.15;;;18.50;61.30;;;;;;5084092;28;20032;-73
2022/03/14 01:10:21;;;;;;;1.85;1.00;;;18.50;61.30;;;;;;5084810;28;20082;-74
2022/03/14 01:12:46;;;;;;;3.08;1.00;;;18.50;61.30;;;;;;5085401;28;20060;-73
2022/03/14 01:15:12;;;;;;;1.95;0.90;;;18.50;61.40;;;;;;5086296;28;20059;-75
2022/03/14 01:17:40;;;;;;;2.33;0.88;;;18.40;61.40;;;;;;5084636;28;20034;-75
2022/03/14 01:20:08;;;;;;;1.35;0.85;;;18.40;61.40;;;;;;5084373;28;20631;-75
2022/03/14 01:22:34;;;;;;;1.63;0.70;;;18.40;61.20;;;;;;5084335;28;20031;-73
2022/03/14 01:24:59;;;;;;;1.73;0.80;;;18.40;61.20;;;;;;5083855;28;20051;-75
2022/03/14 01:27:25;;;;;;;2.70;1.05;;;18.40;61.20;;;;;;5084348;28;20491;-74
2022/03/14 01:29:51;;;;;;;2.78;0.85;;;18.40;61.30;;;;;;5085607;28;20404;-73
2022/03/14 01:32:16;;;;;;;1.58;0.80;;;18.40;61.30;;;;;;5085643;28;20501;-74
2022/03/14 01:34:42;;;;;;;1.90;0.85;;;18.30;61.20;;;;;;5085638;28;20085;-74
2022/03/14 01:37:08;;;;;;;1.70;0.90;;;18.30;61.20;;;;;;5111489;27;20030;-74
2022/03/14 01:39:34;;;;;;;2.25;0.90;;;18.30;61.20;;;;;;5087016;28;20047;-75
2022/03/14 01:42:00;;;;;;;1.65;0.88;;;18.20;61.20;;;;;;5084007;28;20487;-74
2022/03/14 01:44:25;;;;;;;3.13;0.70;;;18.30;61.20;;;;;;5085745;28;20028;-75
2022/03/14 01:46:53;;;;;;;2.60;1.00;;;18.20;61.00;;;;;;5083844;28;20036;-77
2022/03/14 01:49:19;;;;;;;1.27;0.63;;;18.20;61.10;;;;;;5085301;28;20066;-74
2022/03/14 01:51:45;;;;;;;1.42;0.80;;;18.20;61.00;;;;;;5085428;28;20032;-74
2022/03/14 01:54:11;;;;;;;1.85;0.88;;;18.20;61.10;;;;;;5086361;28;20563;-74
2022/03/14 01:56:39;;;;;;;1.73;0.88;;;18.20;61.10;;;;;;5087874;28;20099;-74
2022/03/14 01:59:06;;;;;;;2.70;1.20;;;18.10;61.00;;;;;;5086002;28;20039;-74
2022/03/14 02:01:33;;;;;;;2.85;1.30;;;18.10;61.00;;;;;;5086038;28;20039;-75
2022/03/14 02:03:59;;;;;;;3.05;1.00;;;18.10;61.10;;;;;;5084982;28;20051;-75
2022/03/14 02:06:27;;;;;;;1.75;0.95;;;18.10;61.10;;;;;;5085526;28;20020;-74
2022/03/14 02:08:53;;;;;;;1.73;0.80;;;18.00;61.10;;;;;;5084973;28;20051;-74
2022/03/14 02:11:20;;;;;;;1.30;0.88;;;18.00;61.00;;;;;;5084971;28;20530;-74
2022/03/14 02:13:46;;;;;;;1.92;0.90;;;18.00;60.90;;;;;;5088567;28;20040;-74
2022/03/14 02:16:12;;;;;;;2.15;1.20;;;18.00;61.00;;;;;;5085330;28;20044;-74
2022/03/14 02:18:38;;;;;;;2.45;0.75;;;17.90;60.90;;;;;;5084897;28;20495;-74
2022/03/14 02:21:04;;;;;;;1.40;0.70;;;17.90;60.90;;;;;;5084776;28;20139;-76
2022/03/14 02:23:30;;;;;;;2.63;1.10;;;18.00;61.00;;;;;;5083982;28;20028;-75
2022/03/14 02:25:55;;;;;;;1.63;0.80;;;17.90;60.90;;;;;;5084750;28;20043;-74
2022/03/14 02:28:22;;;;;;;2.20;1.00;;;17.90;60.90;;;;;;5087470;28;20032;-75
2022/03/14 02:30:52;;;;;;;2.42;1.00;;;17.90;60.90;;;;;;5086941;28;20111;-73
2022/03/14 02:33:19;;;;;;;1.55;0.70;;;17.90;60.80;;;;;;5085024;28;20020;-74
2022/03/14 02:35:45;;;;;;;1.80;0.80;;;17.80;60.80;;;;;;5085064;28;20028;-76
2022/03/14 02:38:14;;;;;;;3.33;1.00;;;17.80;60.90;;;;;;5086279;28;20032;-73
2022/03/14 02:40:46;;;;;;;2.22;1.15;;;17.80;61.70;;;;;;5083464;28;20039;-73
2022/03/14 02:43:16;;;;;;;2.70;1.05;;;17.80;60.90;;;;;;5087707;28;20024;-76
2022/03/14 02:45:46;;;;;;;2.00;1.00;;;17.80;60.90;;;;;;5088195;28;20059;-75
2022/03/14 02:48:12;;;;;;;2.15;0.90;;;17.80;60.80;;;;;;5082984;28;20520;-77
2022/03/14 02:50:41;;;;;;;3.25;1.20;;;17.80;60.90;;;;;;5084003;28;20038;-75
2022/03/14 02:53:08;;;;;;;1.92;1.08;;;17.80;60.80;;;;;;5084022;28;20035;-73
2022/03/14 02:55:33;;;;;;;2.03;1.05;;;17.70;60.80;;;;;;5087080;28;20024;-74
2022/03/14 02:57:59;;;;;;;2.47;0.82;;;17.70;60.90;;;;;;5084426;28;20529;-75
2022/03/14 03:00:25;;;;;;;3.88;0.90;;;17.70;60.90;;;;;;5090142;28;20036;-74
2022/03/14 03:02:51;;;;;;;2.00;1.15;;;17.70;60.90;;;;;;5087693;28;20496;-75
2022/03/14 03:05:17;;;;;;;1.55;0.77;;;17.70;60.90;;;;;;5088985;28;20069;-76
2022/03/14 03:07:43;;;;;;;2.10;0.90;;;17.70;60.90;;;;;;5088394;28;20044;-75
2022/03/14 03:10:09;;;;;;;4.35;0.93;;;17.70;60.90;;;;;;5089013;28;20391;-77
2022/03/14 03:12:36;;;;;;;2.30;1.08;;;17.60;60.70;;;;;;5088486;28;20484;-74
2022/03/14 03:15:03;;;;;;;1.85;1.10;;;17.60;60.80;;;;;;5092217;28;20035;-74
2022/03/14 03:17:29;;;;;;;2.33;1.10;;;17.60;60.70;;;;;;5070482;28;20110;-75
2022/03/14 03:19:54;;;;;;;3.33;1.10;;;17.60;60.80;;;;;;5086967;28;20547;-75
2022/03/14 03:22:20;;;;;;;4.47;1.42;;;17.60;60.80;;;;;;5088455;28;20035;-75
2022/03/14 03:24:45;;;;;;;3.15;1.10;;;17.60;60.80;;;;;;5087847;28;20085;-73
2022/03/14 03:27:11;;;;;;;3.63;1.30;;;17.60;60.80;;;;;;5088965;28;20050;-75
2022/03/14 03:29:37;;;;;;;3.00;1.15;;;17.60;60.90;;;;;;5088009;28;20035;-74
2022/03/14 03:32:03;;;;;;;2.38;1.02;;;17.50;60.70;;;;;;5087782;28;20115;-73
2022/03/14 03:34:28;;;;;;;2.00;1.10;;;17.50;60.80;;;;;;5087968;28;20067;-75
2022/03/14 03:36:54;;;;;;;2.50;1.13;;;17.50;60.80;;;;;;5088954;28;20031;-74
2022/03/14 03:39:20;;;;;;;2.80;0.80;;;17.50;60.90;;;;;;5089437;28;20331;-74
2022/03/14 03:41:45;;;;;;;2.72;1.42;;;17.50;60.80;;;;;;5087819;28;20621;-75
2022/03/14 03:44:11;;;;;;;6.38;1.90;;;17.50;60.80;;;;;;5092274;28;20032;-74
2022/03/14 03:46:36;;;;;;;4.53;1.23;;;17.50;60.90;;;;;;5087947;28;20103;-73
2022/03/14 03:49:03;;;;;;;2.58;0.98;;;17.50;61.00;;;;;;5087735;28;20031;-73
2022/03/14 03:51:29;;;;;;;3.58;1.23;;;17.40;61.00;;;;;;5088069;28;20491;-73
2022/03/14 03:53:55;;;;;;;2.45;1.10;;;17.40;61.00;;;;;;5087534;28;20490;-73
2022/03/14 03:56:21;;;;;;;3.13;1.60;;;17.40;61.00;;;;;;5089949;28;20043;-74
2022/03/14 03:58:47;;;;;;;2.28;1.13;;;17.40;60.90;;;;;;5087285;28;20484;-74
2022/03/14 04:01:19;;;;;;;3.42;1.35;;;17.40;60.90;;;;;;5087103;28;20027;-74
2022/03/14 04:03:48;;;;;;;3.67;1.60;;;17.40;60.90;;;;;;5086930;28;20172;-74
2022/03/14 04:06:18;;;;;;;3.05;0.90;;;17.40;60.80;;;;;;5088775;28;20028;-74
2022/03/14 04:08:46;;;;;;;4.13;1.20;;;17.40;61.00;;;;;;5087307;28;20059;-75
2022/03/14 04:11:12;;;;;;;2.90;1.08;;;17.30;60.80;;;;;;5086659;28;20028;-75
2022/03/14 04:13:38;;;;;;;5.70;1.20;;;17.30;60.90;;;;;;5090136;28;20033;-75
2022/03/14 04:16:04;;;;;;;4.22;1.27;;;17.30;60.90;;;;;;5088001;28;20032;-75
2022/03/14 04:18:30;;;;;;;3.20;1.73;;;17.30;60.90;;;;;;5085973;28;20032;-75
2022/03/14 04:20:57;;;;;;;5.05;0.88;;;17.30;60.90;;;;;;5086787;28;20024;-74
2022/03/14 04:23:23;;;;;;;3.15;1.23;;;17.30;60.90;;;;;;5087116;28;20089;-75
2022/03/14 04:25:49;;;;;;;5.00;1.05;;;17.30;61.60;;;;;;5085148;28;20028;-74
2022/03/14 04:28:15;;;;;;;3.50;1.15;;;17.30;60.90;;;;;;5086953;28;20032;-74
2022/03/14 04:30:42;;;;;;;3.55;1.27;;;17.20;60.90;;;;;;5086239;28;20024;-74
2022/03/14 04:33:08;;;;;;;3.22;1.35;;;17.20;60.80;;;;;;5087815;28;20032;-74
2022/03/14 04:35:35;;;;;;;3.20;1.10;;;17.20;60.80;;;;;;5086992;28;20028;-74
2022/03/14 04:38:02;;;;;;;3.78;1.30;;;17.20;60.80;;;;;;5087851;28;20036;-74
2022/03/14 04:40:27;;;;;;;4.32;1.70;;;17.20;60.90;;;;;;5086979;28;20020;-74
2022/03/14 04:42:53;;;;;;;3.75;1.30;;;17.20;60.90;;;;;;5086508;28;20023;-74
2022/03/14 04:45:19;;;;;;;4.00;1.30;;;17.20;60.90;;;;;;5091823;28;20028;-74
2022/03/14 04:47:44;;;;;;;3.58;1.25;;;17.20;60.90;;;;;;5086501;28;20736;-74
2022/03/14 04:50:10;;;;;;;3.28;1.33;;;17.10;60.90;;;;;;5087135;28;20020;-74
2022/03/14 04:52:36;;;;;;;4.03;1.45;;;17.10;60.80;;;;;;5085500;28;20024;-75
2022/03/14 04:55:02;;;;;;;2.92;1.20;;;17.10;60.80;;;;;;5087477;28;20115;-76
2022/03/14 04:57:28;;;;;;;3.58;1.40;;;17.10;60.90;;;;;;5087833;28;20059;-73
2022/03/14 04:59:54;;;;;;;2.92;1.00;;;17.10;60.80;;;;;;5087239;28;20048;-75
2022/03/14 05:02:23;;;;;;;5.88;1.58;;;17.10;60.80;;;;;;5086330;28;20085;-74
2022/03/14 05:04:50;;;;;;;2.00;0.98;;;17.10;60.80;;;;;;5086375;28;20046;-74
2022/03/14 05:07:16;;;;;;;3.97;1.05;;;17.10;60.80;;;;;;5086581;28;20032;-74
2022/03/14 05:09:42;;;;;;;5.28;1.40;;;17.10;60.80;;;;;;5084788;28;20031;-73
2022/03/14 05:12:08;;;;;;;2.58;1.20;;;17.10;60.80;;;;;;5087201;28;20023;-73
2022/03/14 05:14:34;;;;;;;4.30;1.02;;;17.00;60.60;;;;;;5089286;28;20069;-74
2022/03/14 05:17:00;;;;;;;2.28;1.23;;;17.10;60.80;;;;;;5085857;28;20406;-74
2022/03/14 05:19:26;;;;;;;3.63;1.40;;;17.00;60.60;;;;;;5085320;28;20024;-75
2022/03/14 05:21:51;;;;;;;2.80;1.00;;;17.00;60.60;;;;;;5086038;28;20024;-73
2022/03/14 05:24:17;;;;;;;3.85;1.10;;;17.00;60.60;;;;;;5085927;28;20093;-74
2022/03/14 05:26:43;;;;;;;4.38;1.40;;;17.00;60.70;;;;;;5084286;28;20020;-74
2022/03/14 05:29:12;;;;;;;3.33;1.10;;;17.00;60.70;;;;;;5085797;28;20078;-76
2022/03/14 05:31:38;;;;;;;4.25;1.00;;;17.00;60.90;;;;;;5085393;28;20079;-76
2022/03/14 05:34:04;;;;;;;3.30;1.17;;;17.00;60.80;;;;;;5085897;28;20040;-74
2022/03/14 05:36:29;;;;;;;3.10;1.30;;;16.90;60.80;;;;;;5085752;28;20056;-74
2022/03/14 05:38:55;;;;;;;3.63;1.52;;;16.90;60.80;;;;;;5087881;28;20032;-74
2022/03/14 05:41:21;;;;;;;3.25;1.38;;;16.90;60.80;;;;;;5085952;28;20085;-74
2022/03/14 05:43:46;;;;;;;4.82;1.40;;;16.90;60.90;;;;;;5085787;28;20507;-75
2022/03/14 05:46:12;;;;;;;3.97;1.38;;;16.90;60.90;;;;;;5087825;28;20032;-76
2022/03/14 05:48:38;;;;;;;4.28;1.50;;;16.90;60.80;;;;;;5085806;28;20032;-76
2022/03/14 05:51:05;;;;;;;3.95;1.40;;;16.90;60.90;;;;;;5085067;28;20069;-75
2022/03/14 05:53:31;;;;;;;5.00;1.48;;;16.90;60.80;;;;;;5085457;28;20127;-74
2022/03/14 05:55:58;;;;;;;4.75;1.05;;;16.80;60.80;;;;;;5087756;28;20028;-74
2022/03/14 05:58:24;;;;;;;4.72;1.73;;;16.80;60.80;;;;;;5085229;28;20387;-74
2022/03/14 06:00:52;;;;;;;2.72;1.05;;;16.80;60.80;;;;;;5089212;28;20108;-74
2022/03/14 06:03:21;;;;;;;5.97;1.60;;;16.80;60.80;;;;;;5106721;28;20047;-76
2022/03/14 06:05:49;;;;;;;3.38;1.00;;;16.80;60.80;;;;;;5109608;28;20020;-74
2022/03/14 06:08:18;;;;;;;3.20;1.38;;;16.80;60.80;;;;;;5090868;28;20381;-73
2022/03/14 06:10:45;;;;;;;4.82;1.35;;;16.80;60.80;;;;;;5090403;28;20103;-74
2022/03/14 06:13:13;;;;;;;3.78;1.40;;;16.80;60.80;;;;;;5102673;28;20019;-74
2022/03/14 06:15:39;;;;;;;4.10;1.50;;;16.80;60.80;;;;;;5112294;28;20502;-76
2022/03/14 06:18:05;;;;;;;4.47;1.60;;;16.80;60.90;;;;;;5093299;28;20031;-74
2022/03/14 06:20:31;;;;;;;6.07;1.58;;;16.80;60.90;;;;;;5091496;28;20395;-76
2022/03/14 06:22:57;;;;;;;4.15;1.20;;;16.80;60.90;;;;;;5090014;28;20415;-76
2022/03/14 06:25:23;;;;;;;4.68;1.50;;;16.80;61.00;;;;;;5091396;28;20024;-76
2022/03/14 06:27:49;;;;;;;4.80;1.52;;;16.70;61.00;;;;;;5089857;28;20036;-74
2022/03/14 06:30:15;;;;;;;3.50;1.50;;;16.70;61.00;;;;;;5090865;28;20020;-75
2022/03/14 06:32:42;;;;;;;4.35;1.13;;;16.70;61.00;;;;;;5090887;28;20111;-74
2022/03/14 06:35:15;;;;;;;4.03;1.35;;;16.70;61.30;;;;;;5101755;28;20024;-73
2022/03/14 06:37:43;;;;;;;3.63;1.55;;;16.70;61.70;;;;;;5111903;28;20387;-73
2022/03/14 06:40:08;;;;;;;7.72;1.95;;;16.70;61.80;;;;;;5093020;28;20024;-73
2022/03/14 06:42:39;;;;;;;5.00;1.48;;;16.70;62.50;;;;;;5091102;28;20107;-73
2022/03/14 06:45:05;;;;;;;10.77;3.83;;;16.70;62.80;;;;;;5091059;28;20043;-74
2022/03/14 06:47:32;;;;;;;4.18;1.73;;;16.70;63.10;;;;;;5091129;28;20077;-74
2022/03/14 06:49:58;;;;;;;4.13;1.60;;;16.70;63.00;;;;;;5091017;28;20017;-74
2022/03/14 06:52:23;;;;;;;4.57;1.60;;;16.70;63.00;;;;;;5091210;28;20050;-75
2022/03/14 06:54:49;;;;;;;4.55;1.67;;;16.70;63.00;;;;;;5090931;28;20604;-76
2022/03/14 06:57:15;;;;;;;5.47;1.65;;;16.70;63.10;;;;;;5090586;28;20031;-75
2022/03/14 06:59:41;;;;;;;4.18;2.10;;;16.70;63.10;;;;;;5089897;28;20089;-74
2022/03/14 07:02:07;;;;;;;5.53;1.75;;;16.80;63.20;;;;;;5090100;28;20032;-74
2022/03/14 07:04:34;;;;;;;6.60;1.60;;;16.70;63.00;;;;;;5090993;28;20012;-74
2022/03/14 07:07:03;;;;;;;4.57;1.73;;;16.80;63.30;;;;;;5089425;28;20032;-74
2022/03/14 07:09:30;;;;;;;4.82;1.67;;;16.80;63.10;;;;;;5090982;28;20506;-73
2022/03/14 07:11:55;;;;;;;5.07;1.67;;;16.80;63.20;;;;;;5090753;28;20020;-73
2022/03/14 07:14:22;;;;;;;6.90;1.80;;;16.80;63.80;;;;;;5109187;28;20035;-73
2022/03/14 07:16:48;;;;;;;5.65;1.70;;;16.80;64.40;;;;;;5093436;28;20036;-73
2022/03/14 07:19:14;;;;;;;4.10;1.65;;;16.80;65.50;;;;;;5089729;28;20019;-73
2022/03/14 07:21:40;;;;;;;4.07;1.55;;;16.80;65.60;;;;;;5092933;28;20032;-74
2022/03/14 07:24:06;;;;;;;6.07;2.08;;;16.80;65.30;;;;;;5090197;28;20028;-73
2022/03/14 07:26:32;;;;;;;6.32;1.60;;;16.80;65.00;;;;;;5089463;28;20067;-72
2022/03/14 07:28:57;;;;;;;7.30;1.70;;;16.80;64.80;;;;;;5091765;28;20055;-72
2022/03/14 07:31:24;;;;;;;3.90;1.10;;;16.80;64.70;;;;;;5109747;28;20111;-73
2022/03/14 07:33:50;;;;;;;3.20;1.27;;;16.80;64.40;;;;;;5110879;28;20031;-73
2022/03/14 07:36:17;;;;;;;6.95;1.73;;;16.80;64.30;;;;;;5111104;28;20379;-73
2022/03/14 07:38:43;;;;;;;4.75;1.50;;;16.90;64.40;;;;;;5109343;28;20390;-73
2022/03/14 07:41:10;;;;;;;7.28;1.45;;;16.90;64.20;;;;;;5111766;28;20111;-75
2022/03/14 07:43:36;;;;;;;4.18;1.20;;;16.90;64.00;;;;;;5091584;28;20515;-75
2022/03/14 07:46:02;;;;;;;7.38;1.70;;;17.00;63.90;;;;;;5095160;28;20795;-75
2022/03/14 07:48:28;;;;;;;7.25;1.40;;;17.00;63.70;;;;;;5093882;28;20036;-75
2022/03/14 07:50:54;;;;;;;14.02;1.60;;;17.10;63.70;;;;;;5093168;28;20043;-75
2022/03/14 07:53:20;;;;;;;9.75;1.92;;;17.10;63.60;;;;;;5092884;28;20487;-75
2022/03/14 07:55:45;;;;;;;4.38;1.45;;;17.20;63.50;;;;;;5093438;28;20032;-75
2022/03/14 07:58:11;;;;;;;6.50;1.15;;;17.20;63.50;;;;;;5094489;28;20361;-74
2022/03/14 08:00:37;;;;;;;6.38;1.75;;;17.30;63.50;;;;;;5093212;28;20698;-74
2022/03/14 08:03:03;;;;;;;7.25;2.42;;;17.30;63.60;;;;;;5092344;28;20012;-74
2022/03/14 08:05:29;;;;;;;7.78;1.80;;;17.30;63.60;;;;;;5092432;28;20031;-75
2022/03/14 08:07:55;;;;;;;6.05;1.67;;;17.40;63.50;;;;;;5088927;28;20471;-75
2022/03/14 08:10:21;;;;;;;6.57;1.60;;;17.40;63.40;;;;;;5092393;28;20020;-75
2022/03/14 08:12:55;;;;;;;8.65;1.73;;;17.50;63.30;;;;;;5092570;28;20028;-76
2022/03/14 08:15:28;;;;;;;5.03;1.70;;;17.50;63.20;;;;;;5093887;28;20103;-74
2022/03/14 08:17:58;;;;;;;5.53;1.33;;;17.60;63.20;;;;;;5092633;28;20104;-75
2022/03/14 08:20:28;;;;;;;4.70;1.65;;;17.60;62.90;;;;;;5092288;28;20028;-80
2022/03/14 08:22:55;;;;;;;5.75;1.60;;;17.70;63.00;;;;;;5090372;28;20395;-77
2022/03/14 08:25:21;;;;;;;8.95;1.70;;;17.80;62.90;;;;;;5091943;28;20024;-77
2022/03/14 08:27:47;;;;;;;5.55;1.50;;;17.80;62.70;;;;;;5092208;28;20040;-77
2022/03/14 08:30:14;;;;;;;5.03;1.75;;;17.80;62.60;;;;;;5093243;28;20024;-76
2022/03/14 08:32:39;;;;;;;6.97;1.45;;;17.80;62.70;;;;;;5092536;28;20080;-81
2022/03/14 08:35:07;;;;;;;9.27;2.45;;;17.90;62.80;;;;;;5093075;28;20024;-78
2022/03/14 08:37:37;;;;;;;6.65;1.38;;;17.90;62.90;;;;;;5093246;28;20020;-77
2022/03/14 08:40:09;;;;;;;4.68;1.50;;;17.90;62.80;;;;;;5092987;28;20036;-77
2022/03/14 08:42:38;;;;;;;4.82;1.63;;;17.90;62.80;;;;;;5080681;28;20032;-78
2022/03/14 08:45:05;;;;;;;3.75;1.30;;;18.00;62.00;;;;;;5091672;28;20028;-77
2022/03/14 08:47:32;;;;;;;15.23;1.88;;;18.00;60.90;;;;;;5092690;28;20399;-75
2022/03/14 08:49:58;;;;;;;6.45;1.55;;;;;;;;;;5092803;28;20032;-76
2022/03/14 08:52:24;;;;;;;5.50;1.17;;;;;;;;;;5093062;28;20032;-76
2022/03/14 08:54:50;;;;;;;9.95;1.10;;;;;;;;;;5092279;28;20024;-76
2022/03/14 08:57:16;;;;;;;6.35;2.08;;;;;;;;;;5091981;28;20028;-76
2022/03/14 08:59:44;;;;;;;4.65;1.17;;;;;;;;;;5090499;28;20107;-76
2022/03/14 09:02:10;;;;;;;4.28;1.45;;;;;;;;;;5092360;28;20015;-76
2022/03/14 09:04:36;;;;;;;4.57;1.30;;;;;;;;;;5091313;28;20024;-76
2022/03/14 09:07:02;;;;;;;3.65;1.52;;;;;;;;;;5092462;28;20036;-76
2022/03/14 09:09:29;;;;;;;6.18;1.83;;;;;;;;;;5092788;28;20028;-76
2022/03/14 09:11:55;;;;;;;4.22;1.42;;;;;;;;;;5090862;28;20024;-76
2022/03/14 09:14:21;;;;;;;5.45;1.13;;;;;;;;;;5091320;28;20051;-77
2022/03/14 09:16:48;;;;;;;5.22;1.65;;;;;;;;;;5090166;28;20032;-76
2022/03/14 09:19:14;;;;;;;6.13;1.42;;;;;;;;;;5091797;28;20016;-76
2022/03/14 09:21:40;;;;;;;5.07;1.15;;;;;;;;;;5092701;28;20037;-76
2022/03/14 09:24:07;;;;;;;5.18;1.30;;;;;;;;;;5092192;28;20024;-76
2022/03/14 09:26:35;;;;;;;3.90;1.10;;;;;;;;;;5091830;28;20036;-76
2022/03/14 09:29:01;;;;;;;7.47;1.40;;;;;;;;;;5091494;28;20032;-76
2022/03/14 09:31:27;;;;;;;4.68;1.20;;;;;;;;;;5091612;28;20794;-75
2022/03/14 09:33:53;;;;;;;6.28;1.58;;;;;;;;;;5090422;28;20060;-75
2022/03/14 09:36:19;;;;;;;6.70;1.50;;;;;;;;;;5091564;28;20028;-75
2022/03/14 09:38:46;;;;;;;6.05;1.33;;;;;;;;;;5091503;28;20035;-76
2022/03/14 09:41:13;;;;;;;5.53;1.10;;;;;;;;;;5091541;28;20028;-76
2022/03/14 09:43:40;;;;;;;4.00;1.40;;;;;;;;;;5092201;28;20028;-76
2022/03/14 09:46:07;;;;;;;6.18;1.60;;;;;;;;;;5090220;28;20035;-76
2022/03/14 09:48:36;;;;;;;7.25;1.42;;;;;;;;;;5091923;28;20036;-76
2022/03/14 09:51:03;;;;;;;3.70;1.20;;;;;;;;;;5091819;28;20028;-77
2022/03/14 09:53:30;;;;;;;3.55;1.13;;;;;;;;;;5091918;28;20035;-76
2022/03/14 09:55:56;;;;;;;4.70;1.15;;;;;;;;;;5090349;28;20069;-77
2022/03/14 09:58:23;;;;;;;5.78;1.10;;;;;;;;;;5091562;28;20021;-77
2022/03/14 10:00:49;;;;;;;4.20;1.27;;;;;;;;;;5091005;28;20032;-77
2022/03/14 10:03:16;;;;;;;3.05;1.02;;;;;;;;;;5090693;28;20070;-77
2022/03/14 10:05:44;;;;;;;4.10;1.13;;;;;;;;;;5090736;28;20043;-76
2022/03/14 10:08:10;;;;;;;2.67;0.95;;;;;;;;;;5090035;28;20472;-76
2022/03/14 10:10:39;;;;;;;4.68;1.35;;;;;;;;;;5091628;28;20103;-77
2022/03/14 10:13:06;;;;;;;4.82;1.63;;;;;;;;;;5090127;28;20020;-76
2022/03/14 10:15:37;;;;;;;4.07;1.27;;;;;;;;;;5090905;28;20039;-76
2022/03/14 10:18:13;;;;;;;3.58;1.45;;;;;;;;;;5090734;28;20028;-76
2022/03/14 10:20:55;;;;;;;5.15;1.63;;;;;;;;;;5092604;28;20032;-76
2022/03/14 10:23:33;;;;;;;3.67;1.05;;;;;;;;;;5090417;28;20496;-76
2022/03/14 10:26:00;;;;;;;3.08;1.00;;;;;;;;;;5086215;28;20035;-76
2022/03/14 10:28:29;;;;;;;3.50;1.50;;;;;;;;;;5089504;28;20101;-76
2022/03/14 10:30:55;;;;;;;5.43;1.38;;;;;;;;;;5091115;28;20392;-76
2022/03/14 10:33:24;;;;;;;5.40;1.58;;;;;;;;;;5090969;28;20024;-76
2022/03/14 10:35:55;;;;;;;4.40;1.30;;;;;;;;;;5098610;28;20457;-76
2022/03/14 10:38:21;;;;;;;4.85;1.20;;;;;;;;;;5111557;28;20028;-77
2022/03/14 10:40:48;;;;;;;3.45;1.20;;;;;;;;;;5095305;28;20035;-77
2022/03/14 10:43:20;;;;;;;3.63;1.08;;;;;;;;;;5090666;28;20028;-76
2022/03/14 10:45:46;;;;;;;4.68;1.48;;;;;;;;;;5089474;28;20024;-76
2022/03/14 10:48:12;;;;;;;5.00;1.00;;;;;;;;;;5089086;28;20046;-76
2022/03/14 10:50:39;;;;;;;2.92;0.80;;;;;;;;;;5091099;28;20020;-76
2022/03/14 10:53:05;;;;;;;4.68;1.40;;;;;;;;;;5088900;28;20503;-77
2022/03/14 10:55:38;;;;;;;5.80;1.48;;;;;;;;;;5089913;28;20020;-77
2022/03/14 10:58:08;;;;;;;6.70;1.60;;;;;;;;;;5090802;28;20101;-77
2022/03/14 11:00:44;;;;;;;6.45;1.25;;;;;;;;;;5089649;28;20028;-77
2022/03/14 11:03:10;;;;;;;7.28;1.30;;;;;;;;;;5089787;28;20027;-76
2022/03/14 11:05:44;;;;;;;7.53;1.20;;;;;;;;;;5089978;28;20028;-76
2022/03/14 11:08:28;;;;;;;6.53;1.15;;;;;;;;;;5089369;28;20089;-77
2022/03/14 11:10:55;;;;;;;5.38;1.27;;;;;;;;;;5086535;28;20020;-76
2022/03/14 11:13:21;;;;;;;7.50;1.60;;;;;;;;;;5089777;28;20628;-76
2022/03/14 11:15:47;;;;;;;6.00;1.30;;;;;;;;;;5089803;28;20046;-77
2022/03/14 11:18:13;;;;;;;5.55;1.20;;;;;;;;;;5088726;28;20064;-75
2022/03/14 11:20:40;;;;;;;3.80;1.02;;;;;;;;;;5090989;28;20028;-76
2022/03/14 11:23:07;;;;;;;4.55;1.15;;;;;;;;;;5094535;28;20028;-77
2022/03/14 11:25:33;;;;;;;9.52;1.27;;;;;;;;;;5093414;28;20028;-76
2022/03/14 11:28:00;;;;;;;7.72;1.42;;;;;;;;;;5093158;28;20798;-77
2022/03/14 11:30:27;;;;;;;10.85;1.85;;;;;;;;;;5089162;28;20016;-77
2022/03/14 11:32:53;;;;;;;8.68;1.20;;;;;;;;;;5091427;28;20035;-76
2022/03/14 11:35:20;;;;;;;8.75;0.98;;;;;;;;;;5093046;28;20047;-76
2022/03/14 11:37:46;;;;;;;13.30;1.65;;;;;;;;;;5094280;28;20028;-76
2022/03/14 11:40:13;;;;;;;8.27;1.42;;;;;;;;;;5092530;28;20028;-76
2022/03/14 11:42:39;;;;;;;6.95;1.50;;;;;;;;;;5094631;28;20503;-76
2022/03/14 11:45:07;;;;;;;8.02;1.25;;;;;;;;;;5092347;28;20024;-76
2022/03/14 11:47:33;;;;;;;4.70;1.20;;;;;;;;;;5094208;28;20036;-76
2022/03/14 11:50:00;;;;;;;6.05;1.30;;;;;;;;;;5092824;28;20028;-76
2022/03/14 11:52:35;;;;;;;6.60;1.02;;;;;;;;;;5093832;28;20034;-76
2022/03/14 11:55:02;;;;;;;5.80;1.27;;;;;;;;;;5093796;28;20069;-75
2022/03/14 11:57:41;;;;;;;3.30;0.95;;;;;;;;;;5093104;28;20028;-75
2022/03/14 12:00:27;;;;;;;5.18;1.27;;;;;;;;;;5093499;28;20036;-76
2022/03/14 12:02:55;;;;;;;6.18;1.35;;;;;;;;;;5092639;28;20028;-77
2022/03/14 12:05:21;;;;;;;3.60;1.10;;;;;;;;;;5092198;28;20038;-77
2022/03/14 12:07:47;;;;;;;10.93;1.48;;;;;;;;;;5090851;28;20139;-77
2022/03/14 12:10:33;;;;;;;4.68;1.40;;;;;;;;;;5092418;28;20682;-77
2022/03/14 12:13:01;;;;;;;8.70;1.73;;;;;;;;;;5092792;28;20094;-77
2022/03/14 12:15:43;;;;;;;5.63;2.00;;;;;;;;;;5093913;28;20072;-77
2022/03/14 12:18:43;;;;;;;8.35;2.28;;;;;;;;;;5088759;28;20043;-77
2022/03/14 12:21:58;;;;;;;5.90;1.85;;;22.20;57.10;;;;;;5048803;28;20028;-78
2022/03/14 12:24:42;;;;;;;4.55;1.40;;;22.90;55.20;;;;;;5083436;28;20499;-78
2022/03/14 12:27:15;;;;;;;3.65;1.35;;;23.20;55.40;;;;;;5089567;28;20067;-78
2022/03/14 12:29:42;;;;;;;3.53;1.20;;;24.70;52.80;;;;;;5089163;28;20027;-78
2022/03/14 12:32:27;;;;;;;4.25;1.40;;;26.40;50.00;;;;;;5091457;28;20023;-78
2022/03/14 12:35:16;;;;;;;5.20;1.30;;;28.10;46.90;;;;;;5090675;28;20111;-79
2022/03/14 12:37:43;;;;;;;4.05;1.20;;;28.80;44.40;;;;;;5084684;28;20032;-77
2022/03/14 12:40:37;;;;;;;3.33;1.25;;;28.80;45.00;;;;;;5092316;28;20054;-76
2022/03/14 12:43:12;;;;;;;3.63;1.00;;;30.50;42.80;;;;;;5091344;28;20024;-76
2022/03/14 12:45:47;;;;;;;4.63;1.20;;;31.60;40.60;;;;;;5091718;28;20028;-75
2022/03/14 12:48:25;;;;;;;5.78;1.30;;;32.80;37.90;;;;;;5093330;28;20035;-76
2022/03/14 12:50:51;;;;;;;5.10;0.93;;;;;;;;;;5091916;28;20479;-76
2022/03/14 12:53:29;;;;;;;5.00;1.10;;;33.10;36.80;;;;;;5092442;28;20031;-76
2022/03/14 12:56:02;;;;;;;4.65;1.08;;;33.60;37.10;;;;;;5091892;28;20468;-76
2022/03/14 12:58:29;;;;;;;6.95;1.10;;;34.20;35.50;;;;;;5093096;28;20031;-76
2022/03/14 13:00:57;;;;;;;2.38;0.75;;;34.20;35.90;;;;;;5091601;28;20024;-76
2022/03/14 13:03:29;;;;;;;2.35;0.80;;;32.10;37.20;;;;;;5110380;27;20020;-77
2022/03/14 13:05:55;;;;;;;4.03;0.98;;;32.80;37.80;;;;;;5072503;28;20021;-77
2022/03/14 13:08:21;;;;;;;3.10;0.70;;;31.50;39.10;;;;;;5072552;28;20461;-78
2022/03/14 13:10:52;;;;;;;3.03;0.80;;;29.50;41.50;;;;;;5072238;28;20036;-79
2022/03/14 13:13:32;;;;;;;3.67;0.93;;;28.10;43.80;;;;;;5072680;28;20025;-77
2022/03/14 13:16:09;;;;;;;2.90;1.05;;;27.40;45.10;;;;;;5072347;28;20025;-77
2022/03/14 13:18:40;;;;;;;3.70;1.10;;;26.80;46.10;;;;;;5091862;28;20452;-78